Time;durP1;ratioP1;P1;durP2;ratioP2;P2;SDS_P1;SDS_P2;PMS_P1;PMS_P2;Temp;Humidity;BMP_temperature;BMP_pressure;BME280_temperature;BME280_humidity;BME280_pressure;Samples;Min_cycle;Max_cycle;Signal;HPM_P1;HPM_P2
2023/09/16 00:00:35;;;;;;;29.38;18.75;;;16.10;99.90;;;;;;4971546;28;20182;-67
2023/09/16 00:03:01;;;;;;;23.30;17.77;;;16.10;99.90;;;;;;4972562;28;20544;-69
2023/09/16 00:05:27;;;;;;;29.63;18.58;;;16.00;99.90;;;;;;4973103;28;20174;-67
2023/09/16 00:07:53;;;;;;;26.80;19.70;;;16.00;99.90;;;;;;4956019;28;20243;-69
2023/09/16 00:10:19;;;;;;;24.30;17.95;;;15.90;99.90;;;;;;4972227;28;20309;-68
2023/09/16 00:12:45;;;;;;;25.15;18.73;;;15.90;99.90;;;;;;4966960;28;20280;-67
2023/09/16 00:15:11;;;;;;;29.48;19.60;;;15.80;99.90;;;;;;4966869;28;20194;-68
2023/09/16 00:17:37;;;;;;;24.45;19.25;;;15.80;99.90;;;;;;4973083;28;20193;-68
2023/09/16 00:20:11;;;;;;;25.25;19.63;;;15.70;99.90;;;;;;4949623;28;20197;-69
2023/09/16 00:22:37;;;;;;;28.23;20.70;;;15.70;99.90;;;;;;4968182;28;20181;-72
2023/09/16 00:25:04;;;;;;;30.58;20.58;;;15.70;99.90;;;;;;4971449;28;20256;-68
2023/09/16 00:27:30;;;;;;;26.02;21.42;;;15.60;99.90;;;;;;4972849;28;20189;-69
2023/09/16 00:29:56;;;;;;;27.10;20.55;;;15.60;99.90;;;;;;4972066;28;20217;-70
2023/09/16 00:32:22;;;;;;;30.13;21.73;;;15.50;99.90;;;;;;4971130;28;20642;-67
2023/09/16 00:34:51;;;;;;;28.75;20.80;;;15.50;99.90;;;;;;4983255;28;20201;-67
2023/09/16 00:37:16;;;;;;;31.85;22.77;;;15.50;99.90;;;;;;4974088;28;20557;-68
2023/09/16 00:39:42;;;;;;;28.77;21.38;;;15.40;99.90;;;;;;4950071;28;20196;-68
2023/09/16 00:42:09;;;;;;;29.50;21.08;;;15.40;99.90;;;;;;4968204;28;20186;-68
2023/09/16 00:44:34;;;;;;;33.17;21.65;;;15.40;99.90;;;;;;4950629;28;20276;-68
2023/09/16 00:47:00;;;;;;;28.23;22.08;;;15.30;99.90;;;;;;4954215;28;20209;-70
2023/09/16 00:49:30;;;;;;;34.33;23.15;;;15.30;99.90;;;;;;4934528;28;20248;-68
2023/09/16 00:51:57;;;;;;;28.73;22.67;;;15.30;99.90;;;;;;4971369;28;20245;-68
2023/09/16 00:54:23;;;;;;;28.65;23.17;;;15.30;99.90;;;;;;4936116;28;20186;-74
2023/09/16 00:56:51;;;;;;;31.30;23.35;;;15.20;99.90;;;;;;4951220;28;20190;-67
2023/09/16 00:59:20;;;;;;;30.02;23.80;;;15.20;99.90;;;;;;4941924;28;20196;-69
2023/09/16 01:01:49;;;;;;;32.17;24.10;;;15.20;99.90;;;;;;4972344;28;20182;-68
2023/09/16 01:04:16;;;;;;;33.90;25.33;;;15.20;99.90;;;;;;4959719;28;20182;-73
2023/09/16 01:06:47;;;;;;;29.05;24.30;;;15.20;99.90;;;;;;4969064;28;20536;-68
2023/09/16 01:09:16;;;;;;;31.50;24.80;;;15.20;99.90;;;;;;4936158;28;20320;-69
2023/09/16 01:11:42;;;;;;;35.80;25.80;;;15.10;99.90;;;;;;4952418;28;20193;-68
2023/09/16 01:14:13;;;;;;;34.80;24.98;;;15.10;99.90;;;;;;4974363;28;20215;-69
2023/09/16 01:16:44;;;;;;;38.63;26.48;;;15.10;99.90;;;;;;4953851;28;20189;-71
2023/09/16 01:19:19;;;;;;;36.25;26.27;;;15.10;99.90;;;;;;4957396;28;20198;-75
2023/09/16 01:21:47;;;;;;;36.15;26.42;;;15.10;99.90;;;;;;4955732;28;20264;-71
2023/09/16 01:24:24;;;;;;;35.53;25.85;;;15.10;99.90;;;;;;4956237;28;20198;-67
2023/09/16 01:26:50;;;;;;;33.72;26.20;;;15.10;99.90;;;;;;4973398;28;20189;-61
2023/09/16 01:29:17;;;;;;;37.65;27.17;;;15.10;99.90;;;;;;4956401;28;20271;-64
2023/09/16 01:31:45;;;;;;;33.92;26.50;;;15.10;99.90;;;;;;4961314;28;20186;-66
2023/09/16 01:34:22;;;;;;;36.58;27.42;;;15.10;99.90;;;;;;4963564;28;20193;-68
2023/09/16 01:36:54;;;;;;;35.03;26.83;;;15.10;99.90;;;;;;4976728;28;20263;-67
2023/09/16 01:39:23;;;;;;;35.88;26.27;;;15.00;99.90;;;;;;4954423;28;20240;-66
2023/09/16 01:41:52;;;;;;;35.80;27.45;;;15.00;99.90;;;;;;4975658;28;20182;-66
2023/09/16 01:44:18;;;;;;;34.25;27.20;;;15.00;99.90;;;;;;4975373;28;20178;-67
2023/09/16 01:46:44;;;;;;;36.03;27.27;;;15.00;99.90;;;;;;4958617;28;20554;-67
2023/09/16 01:49:10;;;;;;;38.15;27.48;;;15.00;99.90;;;;;;4957454;28;20214;-68
2023/09/16 01:51:36;;;;;;;39.38;28.48;;;15.00;99.90;;;;;;4974653;28;20248;-67
2023/09/16 01:54:02;;;;;;;36.47;27.30;;;15.00;99.90;;;;;;4938504;29;20773;-67
2023/09/16 01:56:30;;;;;;;36.40;28.80;;;15.00;99.90;;;;;;4966030;28;20186;-67
2023/09/16 01:58:56;;;;;;;38.38;28.65;;;15.00;99.90;;;;;;4940609;28;20637;-71
2023/09/16 02:01:22;;;;;;;34.85;27.80;;;15.00;99.90;;;;;;4956861;28;20187;-68
2023/09/16 02:03:48;;;;;;;38.83;26.40;;;15.00;99.90;;;;;;4985185;28;20186;-67
2023/09/16 02:06:14;;;;;;;35.83;28.27;;;15.00;99.90;;;;;;4958321;28;20190;-67
2023/09/16 02:08:40;;;;;;;36.83;27.42;;;14.90;99.90;;;;;;4955673;28;20222;-67
2023/09/16 02:11:07;;;;;;;34.97;27.00;;;14.90;99.90;;;;;;4984539;28;20219;-67
2023/09/16 02:13:35;;;;;;;39.03;28.55;;;14.90;99.90;;;;;;4922856;29;20542;-67
2023/09/16 02:16:02;;;;;;;41.35;27.45;;;14.90;99.90;;;;;;4957937;28;20273;-67
2023/09/16 02:18:29;;;;;;;39.30;28.13;;;14.90;99.90;;;;;;4957511;28;20193;-67
2023/09/16 02:20:55;;;;;;;39.22;28.75;;;14.90;99.90;;;;;;4955204;28;20217;-68
2023/09/16 02:23:22;;;;;;;37.28;28.55;;;14.90;99.90;;;;;;4953188;28;20213;-67
2023/09/16 02:25:48;;;;;;;39.63;28.80;;;14.80;99.90;;;;;;4970925;28;20201;-68
2023/09/16 02:28:14;;;;;;;38.67;28.92;;;14.80;99.90;;;;;;4972991;28;20178;-67
2023/09/16 02:30:40;;;;;;;38.88;29.52;;;14.80;99.90;;;;;;4958209;28;20272;-67
2023/09/16 02:33:06;;;;;;;40.92;29.92;;;14.80;99.90;;;;;;4985178;28;20213;-68
2023/09/16 02:35:32;;;;;;;38.70;30.73;;;14.80;99.90;;;;;;4957144;28;20635;-67
2023/09/16 02:37:58;;;;;;;39.92;30.92;;;14.80;99.90;;;;;;4956958;28;20192;-68
2023/09/16 02:40:26;;;;;;;39.03;30.10;;;14.80;99.90;;;;;;4961369;28;20185;-67
2023/09/16 02:42:52;;;;;;;41.28;30.35;;;14.80;99.90;;;;;;4953859;28;20184;-66
2023/09/16 02:45:18;;;;;;;41.13;31.00;;;14.70;99.90;;;;;;4988431;28;20190;-67
2023/09/16 02:47:44;;;;;;;40.83;30.27;;;14.70;99.90;;;;;;4940988;28;20546;-66
2023/09/16 02:50:11;;;;;;;40.47;31.17;;;14.80;99.90;;;;;;4954435;28;20220;-68
2023/09/16 02:52:37;;;;;;;42.20;31.70;;;14.70;99.90;;;;;;4983477;28;20229;-67
2023/09/16 02:55:03;;;;;;;41.80;32.15;;;14.70;99.90;;;;;;4983949;28;20958;-67
2023/09/16 02:57:29;;;;;;;41.17;31.33;;;14.70;99.90;;;;;;4940368;28;20616;-67
2023/09/16 02:59:55;;;;;;;41.60;30.67;;;14.70;99.90;;;;;;4956811;28;20186;-67
2023/09/16 03:02:21;;;;;;;39.40;31.00;;;14.70;99.90;;;;;;4956492;28;20175;-67
2023/09/16 03:04:47;;;;;;;42.97;32.40;;;14.70;99.90;;;;;;4951670;28;20190;-67
2023/09/16 03:07:14;;;;;;;44.90;32.00;;;14.70;99.90;;;;;;4985203;28;20225;-67
2023/09/16 03:09:42;;;;;;;40.60;32.05;;;14.60;99.90;;;;;;4956534;28;20220;-66
2023/09/16 03:12:11;;;;;;;43.08;31.45;;;14.60;99.90;;;;;;4972578;28;20198;-67
2023/09/16 03:14:37;;;;;;;45.67;32.92;;;14.60;99.90;;;;;;4955154;28;20183;-69
2023/09/16 03:17:03;;;;;;;41.45;31.80;;;14.70;99.90;;;;;;4935552;28;20610;-67
2023/09/16 03:19:31;;;;;;;41.72;31.75;;;14.60;99.90;;;;;;4940307;28;20190;-66
2023/09/16 03:21:57;;;;;;;42.88;33.60;;;14.60;99.90;;;;;;4940902;28;20714;-67
2023/09/16 03:24:23;;;;;;;44.97;34.03;;;14.60;99.90;;;;;;4956187;28;20190;-69
2023/09/16 03:26:50;;;;;;;46.63;34.00;;;14.60;99.90;;;;;;4951943;28;20200;-70
2023/09/16 03:29:17;;;;;;;45.50;34.38;;;14.60;99.90;;;;;;4975501;28;20209;-68
2023/09/16 03:31:43;;;;;;;39.47;31.45;;;14.60;99.90;;;;;;4961762;28;20197;-67
2023/09/16 03:34:16;;;;;;;48.60;32.90;;;14.50;99.90;;;;;;4939806;28;20674;-67
2023/09/16 03:36:42;;;;;;;43.75;34.08;;;14.50;99.90;;;;;;4954127;28;20197;-69
2023/09/16 03:39:08;;;;;;;41.67;32.15;;;14.50;99.90;;;;;;4936718;28;20190;-70
2023/09/16 03:41:35;;;;;;;41.60;31.83;;;14.50;99.90;;;;;;4937842;28;20273;-68
2023/09/16 03:44:02;;;;;;;41.55;32.67;;;14.40;99.90;;;;;;4955761;28;20269;-68
2023/09/16 03:46:31;;;;;;;45.60;33.42;;;14.40;99.90;;;;;;4938720;28;20201;-67
2023/09/16 03:48:59;;;;;;;44.83;34.22;;;14.40;99.90;;;;;;4949248;28;20653;-67
2023/09/16 03:51:27;;;;;;;44.17;34.03;;;14.40;99.90;;;;;;4987671;28;20185;-67
2023/09/16 03:53:54;;;;;;;43.80;33.90;;;14.40;99.90;;;;;;4955721;28;20312;-67
2023/09/16 03:56:21;;;;;;;47.40;34.00;;;14.40;99.90;;;;;;4955849;28;20198;-68
2023/09/16 03:58:47;;;;;;;49.70;35.97;;;14.30;99.90;;;;;;4969916;28;20193;-67
2023/09/16 04:01:13;;;;;;;42.35;33.40;;;14.30;99.90;;;;;;4964937;28;20642;-68
2023/09/16 04:03:39;;;;;;;43.75;34.42;;;14.30;99.90;;;;;;4955608;28;20186;-68
2023/09/16 04:06:05;;;;;;;44.50;34.22;;;14.30;99.90;;;;;;4940149;28;20605;-67
2023/09/16 04:08:31;;;;;;;48.72;37.40;;;14.30;99.90;;;;;;4954889;28;20193;-69
2023/09/16 04:10:57;;;;;;;49.08;36.50;;;14.30;99.90;;;;;;4955015;28;20196;-65
2023/09/16 04:13:23;;;;;;;46.35;36.17;;;14.30;99.90;;;;;;4955195;28;20642;-63
2023/09/16 04:15:50;;;;;;;55.15;38.30;;;14.20;99.90;;;;;;4975124;28;20217;-65
2023/09/16 04:18:16;;;;;;;49.00;37.38;;;14.20;99.90;;;;;;4967091;28;20190;-66
2023/09/16 04:20:45;;;;;;;56.80;39.90;;;14.30;99.90;;;;;;4953325;28;20197;-63
2023/09/16 04:23:11;;;;;;;50.83;36.15;;;14.20;99.90;;;;;;4955566;28;20193;-63
2023/09/16 04:25:37;;;;;;;53.45;37.45;;;14.20;99.90;;;;;;4967770;28;20186;-64
2023/09/16 04:28:03;;;;;;;49.22;36.20;;;14.20;99.90;;;;;;4948452;28;20253;-62
2023/09/16 04:30:30;;;;;;;49.92;38.08;;;14.20;99.90;;;;;;4951579;28;20258;-63
2023/09/16 04:32:57;;;;;;;51.40;37.47;;;14.20;99.90;;;;;;4980726;28;20253;-63
2023/09/16 04:35:24;;;;;;;48.35;37.97;;;14.20;99.90;;;;;;4937372;28;20194;-62
2023/09/16 04:37:50;;;;;;;51.42;39.40;;;14.10;99.90;;;;;;4984421;28;20193;-63
2023/09/16 04:40:16;;;;;;;50.47;36.75;;;14.20;99.90;;;;;;4958122;28;20185;-63
2023/09/16 04:42:42;;;;;;;49.58;37.03;;;14.20;99.90;;;;;;4976683;28;20186;-63
2023/09/16 04:45:10;;;;;;;50.92;39.30;;;14.20;99.90;;;;;;4983193;28;20213;-62
2023/09/16 04:47:36;;;;;;;50.40;38.42;;;14.10;99.90;;;;;;4950427;28;20214;-66
2023/09/16 04:50:03;;;;;;;48.97;36.45;;;14.10;99.90;;;;;;4951736;28;20290;-72
2023/09/16 04:52:33;;;;;;;50.33;37.72;;;14.10;99.90;;;;;;4950418;28;20226;-64
2023/09/16 04:54:59;;;;;;;49.20;36.95;;;14.10;99.90;;;;;;4955488;28;20210;-64
2023/09/16 04:57:25;;;;;;;48.22;35.90;;;14.10;99.90;;;;;;4951539;28;20214;-64
2023/09/16 04:59:54;;;;;;;50.65;37.65;;;14.10;99.90;;;;;;4981533;28;20189;-65
2023/09/16 05:02:20;;;;;;;47.95;37.63;;;14.10;99.90;;;;;;4951214;28;20196;-66
2023/09/16 05:04:46;;;;;;;50.35;38.17;;;14.10;99.90;;;;;;4955601;28;20221;-67
2023/09/16 05:07:15;;;;;;;52.88;38.00;;;14.10;99.90;;;;;;4951450;28;20413;-64
2023/09/16 05:09:41;;;;;;;47.92;36.50;;;14.10;99.90;;;;;;4968425;28;20659;-66
2023/09/16 05:12:07;;;;;;;49.15;36.30;;;14.10;99.90;;;;;;4954625;28;20198;-69
2023/09/16 05:14:33;;;;;;;47.17;35.35;;;14.10;99.90;;;;;;4955655;28;20257;-69
2023/09/16 05:16:59;;;;;;;50.17;36.55;;;14.10;99.90;;;;;;4938879;28;20844;-67
2023/09/16 05:19:25;;;;;;;46.67;36.40;;;14.10;99.90;;;;;;4954857;28;20182;-63
2023/09/16 05:21:52;;;;;;;46.45;37.22;;;14.10;99.90;;;;;;4968442;28;20654;-62
2023/09/16 05:24:18;;;;;;;47.10;35.75;;;14.10;99.90;;;;;;4949689;28;20210;-65
2023/09/16 05:26:45;;;;;;;48.17;36.40;;;14.10;99.90;;;;;;4971634;28;20193;-63
2023/09/16 05:29:11;;;;;;;45.97;35.65;;;14.10;99.90;;;;;;4970223;28;20692;-62
2023/09/16 05:31:40;;;;;;;45.08;35.97;;;14.10;99.90;;;;;;4982114;28;20209;-63
2023/09/16 05:34:06;;;;;;;48.28;37.28;;;14.10;99.90;;;;;;4968335;28;20269;-62
2023/09/16 05:36:33;;;;;;;48.60;37.70;;;14.10;99.90;;;;;;4971788;28;20277;-66
2023/09/16 05:39:00;;;;;;;51.78;37.42;;;14.10;99.90;;;;;;4954059;28;20202;-65
2023/09/16 05:41:26;;;;;;;48.15;37.30;;;14.10;99.90;;;;;;4954873;28;20588;-62
2023/09/16 05:43:52;;;;;;;49.13;36.88;;;14.10;99.90;;;;;;4954809;28;20248;-68
2023/09/16 05:46:19;;;;;;;52.25;38.95;;;14.20;99.90;;;;;;4938214;28;20198;-65
2023/09/16 05:48:45;;;;;;;51.95;39.90;;;14.20;99.90;;;;;;4952951;28;20213;-64
2023/09/16 05:51:11;;;;;;;54.72;40.50;;;14.20;99.90;;;;;;4955862;28;20197;-64
2023/09/16 05:53:39;;;;;;;56.95;40.55;;;14.20;99.90;;;;;;4954420;28;20230;-66
2023/09/16 05:56:06;;;;;;;52.05;38.92;;;14.30;99.90;;;;;;4943271;28;20181;-64
2023/09/16 05:58:35;;;;;;;50.67;38.17;;;14.30;99.90;;;;;;4954624;28;20197;-67
2023/09/16 06:01:02;;;;;;;51.65;38.47;;;14.40;99.90;;;;;;4958334;28;20193;-67
2023/09/16 06:03:28;;;;;;;49.65;38.35;;;14.40;99.90;;;;;;4958005;28;20190;-65
2023/09/16 06:06:01;;;;;;;50.95;39.63;;;14.40;99.90;;;;;;4957764;28;20528;-67
2023/09/16 06:08:27;;;;;;;52.00;39.58;;;14.50;99.90;;;;;;4941413;28;20186;-66
2023/09/16 06:10:56;;;;;;;48.50;39.05;;;14.50;99.90;;;;;;4953658;28;20183;-68
2023/09/16 06:13:22;;;;;;;46.17;37.30;;;14.60;99.90;;;;;;4989619;28;20194;-66
2023/09/16 06:15:48;;;;;;;48.28;36.95;;;14.60;99.90;;;;;;4952985;28;20178;-67
2023/09/16 06:18:15;;;;;;;46.50;38.60;;;14.70;99.90;;;;;;4956802;28;20220;-65
2023/09/16 06:20:41;;;;;;;46.67;35.97;;;14.70;99.90;;;;;;4952574;28;20265;-66
2023/09/16 06:23:07;;;;;;;52.25;36.22;;;14.80;99.90;;;;;;4953403;28;20236;-65
2023/09/16 06:25:34;;;;;;;51.78;36.72;;;14.80;99.90;;;;;;4958032;28;20214;-69
2023/09/16 06:28:00;;;;;;;49.20;34.80;;;14.90;99.90;;;;;;4957495;28;20722;-68
2023/09/16 06:30:27;;;;;;;46.40;34.50;;;14.90;99.90;;;;;;4955612;28;20225;-66
2023/09/16 06:32:53;;;;;;;47.53;35.38;;;14.90;99.90;;;;;;4953544;28;20261;-64
2023/09/16 06:35:19;;;;;;;62.70;37.58;;;14.90;99.90;;;;;;4979315;28;20216;-63
2023/09/16 06:37:45;;;;;;;61.28;37.53;;;15.00;99.90;;;;;;4960758;28;20190;-65
2023/09/16 06:40:12;;;;;;;51.47;35.38;;;15.10;99.90;;;;;;4974866;28;20217;-64
2023/09/16 06:42:37;;;;;;;52.90;35.03;;;15.20;99.90;;;;;;4957083;28;20190;-62
2023/09/16 06:45:04;;;;;;;53.92;34.72;;;15.20;99.90;;;;;;4957235;28;20189;-65
2023/09/16 06:47:30;;;;;;;51.95;35.05;;;15.30;99.90;;;;;;4974542;28;20191;-65
2023/09/16 06:49:56;;;;;;;50.70;34.92;;;15.30;99.90;;;;;;4968437;28;20647;-64
2023/09/16 06:52:22;;;;;;;40.92;30.50;;;15.40;99.90;;;;;;4973076;28;20387;-64
2023/09/16 06:54:49;;;;;;;42.40;31.55;;;15.40;99.90;;;;;;4974465;28;20234;-63
2023/09/16 06:57:15;;;;;;;45.38;32.25;;;15.50;99.90;;;;;;4974344;28;20186;-64
2023/09/16 06:59:45;;;;;;;49.22;32.08;;;15.60;99.90;;;;;;4969916;28;20269;-66
2023/09/16 07:02:11;;;;;;;40.92;31.23;;;15.70;99.90;;;;;;4971728;28;20622;-66
2023/09/16 07:04:40;;;;;;;41.53;31.38;;;15.80;99.90;;;;;;4956744;28;20261;-66
2023/09/16 07:07:09;;;;;;;46.15;31.50;;;15.80;99.90;;;;;;4974501;28;20213;-67
2023/09/16 07:09:35;;;;;;;42.55;29.88;;;15.90;99.90;;;;;;4952409;28;20240;-67
2023/09/16 07:12:02;;;;;;;41.78;29.88;;;16.00;99.90;;;;;;4970911;28;20690;-66
2023/09/16 07:14:27;;;;;;;40.65;29.50;;;16.00;99.90;;;;;;4973708;28;20190;-69
2023/09/16 07:16:53;;;;;;;41.05;30.27;;;16.10;99.90;;;;;;4973690;28;20252;-67
2023/09/16 07:19:19;;;;;;;39.67;27.52;;;16.20;99.90;;;;;;4939051;28;20186;-73
2023/09/16 07:21:45;;;;;;;38.80;29.15;;;16.20;99.90;;;;;;4964209;28;20187;-68
2023/09/16 07:24:11;;;;;;;36.35;27.52;;;16.30;99.90;;;;;;4966181;28;20193;-67
2023/09/16 07:26:37;;;;;;;35.90;27.63;;;16.40;99.90;;;;;;4973283;28;20886;-69
2023/09/16 07:29:03;;;;;;;36.78;28.10;;;16.40;99.90;;;;;;4973656;28;20309;-65
2023/09/16 07:31:29;;;;;;;40.05;28.77;;;16.50;99.90;;;;;;4971453;28;20190;-65
2023/09/16 07:33:55;;;;;;;36.72;27.70;;;16.50;99.90;;;;;;4970675;28;20809;-66
2023/09/16 07:36:21;;;;;;;37.58;26.35;;;16.60;99.90;;;;;;4973045;28;20712;-66
2023/09/16 07:38:47;;;;;;;31.38;25.40;;;16.70;99.90;;;;;;4971998;28;20186;-68
2023/09/16 07:41:13;;;;;;;30.25;24.77;;;16.80;99.90;;;;;;4971891;28;20253;-66
2023/09/16 07:43:39;;;;;;;33.38;25.17;;;16.80;99.90;;;;;;4969897;28;20194;-65
2023/09/16 07:46:05;;;;;;;33.95;24.75;;;16.90;99.90;;;;;;4973261;28;20592;-67
2023/09/16 07:48:32;;;;;;;31.58;23.55;;;16.90;99.90;;;;;;4973677;28;20181;-67
2023/09/16 07:50:58;;;;;;;33.20;24.23;;;17.00;99.90;;;;;;4972670;28;20200;-66
2023/09/16 07:53:24;;;;;;;29.23;23.58;;;17.10;99.90;;;;;;4956881;28;20667;-66
2023/09/16 07:55:50;;;;;;;31.90;24.02;;;17.10;99.90;;;;;;4973676;28;20190;-66
2023/09/16 07:58:16;;;;;;;32.67;24.65;;;17.20;99.90;;;;;;4951972;28;20197;-67
2023/09/16 08:00:43;;;;;;;34.67;23.80;;;17.30;99.90;;;;;;4972960;28;20232;-66
2023/09/16 08:03:08;;;;;;;32.25;23.17;;;17.30;99.90;;;;;;4973010;28;20276;-67
2023/09/16 08:05:34;;;;;;;31.20;22.85;;;17.40;99.90;;;;;;4972690;28;20269;-67
2023/09/16 08:08:01;;;;;;;33.33;24.20;;;17.40;99.90;;;;;;4968841;28;20750;-66
2023/09/16 08:10:27;;;;;;;30.08;21.92;;;17.50;99.90;;;;;;4971237;28;20217;-66
2023/09/16 08:12:53;;;;;;;30.70;22.38;;;17.60;99.90;;;;;;4970907;28;20561;-66
2023/09/16 08:15:19;;;;;;;31.08;22.88;;;17.60;99.90;;;;;;4968158;28;20186;-68
2023/09/16 08:17:45;;;;;;;32.05;22.70;;;17.70;99.90;;;;;;4952974;28;20205;-66
2023/09/16 08:20:11;;;;;;;31.73;23.42;;;17.70;99.90;;;;;;4953076;28;20574;-66
2023/09/16 08:22:37;;;;;;;32.05;22.98;;;17.80;99.90;;;;;;4973060;28;20714;-65
2023/09/16 08:25:03;;;;;;;34.28;23.23;;;17.90;99.90;;;;;;4955006;28;20182;-66
2023/09/16 08:27:30;;;;;;;33.53;23.30;;;18.00;99.90;;;;;;4971995;28;20188;-71
2023/09/16 08:29:56;;;;;;;31.52;22.60;;;18.10;99.90;;;;;;4969153;28;20221;-66
2023/09/16 08:32:28;;;;;;;31.55;22.23;;;18.20;99.90;;;;;;4972653;28;20246;-68
2023/09/16 08:34:55;;;;;;;30.50;20.52;;;18.30;99.90;;;;;;4972686;28;20178;-68
2023/09/16 08:37:21;;;;;;;34.55;22.08;;;18.30;99.90;;;;;;4972747;28;20290;-65
2023/09/16 08:39:47;;;;;;;26.83;21.42;;;18.50;99.90;;;;;;4967508;28;20396;-68
2023/09/16 08:42:33;;;;;;;29.75;20.15;;;18.50;99.90;;;;;;4968828;28;20186;-65
2023/09/16 08:45:03;;;;;;;31.65;19.88;;;18.60;99.90;;;;;;4965913;28;20189;-65
2023/09/16 08:47:40;;;;;;;23.63;18.77;;;18.60;99.90;;;;;;4965996;28;20277;-67
2023/09/16 08:50:08;;;;;;;27.27;18.00;;;18.70;99.90;;;;;;4964559;28;20236;-73
2023/09/16 08:52:44;;;;;;;24.98;17.98;;;18.80;99.90;;;;;;4968697;28;20662;-66
2023/09/16 08:55:14;;;;;;;28.67;19.20;;;18.90;99.90;;;;;;4972470;28;20269;-69
2023/09/16 08:58:00;;;;;;;26.13;17.25;;;19.00;99.90;;;;;;4972008;28;20186;-66
2023/09/16 09:00:26;;;;;;;22.25;16.75;;;19.00;99.90;;;;;;4922164;28;20524;-64
2023/09/16 09:02:53;;;;;;;25.67;17.52;;;19.10;99.90;;;;;;4955352;28;20204;-65
2023/09/16 09:05:23;;;;;;;19.70;15.00;;;19.20;99.90;;;;;;4972401;28;20205;-73
2023/09/16 09:07:49;;;;;;;19.27;14.68;;;19.30;99.90;;;;;;4972857;28;20201;-66
2023/09/16 09:10:15;;;;;;;20.67;15.57;;;19.30;99.90;;;;;;4953276;28;20345;-70
2023/09/16 09:12:42;;;;;;;21.83;15.45;;;19.50;99.90;;;;;;4950768;28;20718;-70
2023/09/16 09:15:13;;;;;;;20.10;13.48;;;19.50;99.90;;;;;;4971178;28;20235;-70
2023/09/16 09:17:45;;;;;;;15.23;12.50;;;19.60;99.90;;;;;;4967669;28;20190;-70
2023/09/16 09:20:19;;;;;;;17.25;12.85;;;19.70;99.90;;;;;;4971037;28;20218;-69
2023/09/16 09:22:47;;;;;;;19.88;12.55;;;19.80;99.90;;;;;;4964954;28;20186;-69
2023/09/16 09:25:13;;;;;;;17.25;12.07;;;19.90;99.90;;;;;;4971539;28;20526;-66
2023/09/16 09:27:39;;;;;;;17.85;13.13;;;20.00;99.90;;;;;;4953629;28;20253;-65
2023/09/16 09:30:05;;;;;;;16.95;12.90;;;20.00;99.90;;;;;;4971615;28;20668;-64
2023/09/16 09:32:32;;;;;;;14.88;11.45;;;20.10;99.90;;;;;;4954077;28;20197;-65
2023/09/16 09:35:04;;;;;;;20.67;11.60;;;20.20;99.90;;;;;;4970197;28;20186;-67
2023/09/16 09:37:30;;;;;;;18.90;11.30;;;20.30;99.90;;;;;;4975654;28;20184;-66
2023/09/16 09:40:08;;;;;;;15.20;10.35;;;20.40;99.90;;;;;;4975102;28;20189;-66
2023/09/16 09:42:41;;;;;;;13.90;9.10;;;20.40;99.90;;;;;;4974654;28;20182;-67
2023/09/16 09:45:08;;;;;;;14.35;8.10;;;20.50;99.90;;;;;;4944060;28;20187;-65
2023/09/16 09:47:34;;;;;;;13.85;8.00;;;20.60;99.90;;;;;;4966131;28;20178;-66
2023/09/16 09:50:02;;;;;;;15.48;9.32;;;20.70;99.90;;;;;;4975021;28;20671;-68
2023/09/16 09:52:29;;;;;;;16.42;8.20;;;20.80;99.90;;;;;;4974685;28;20178;-64
2023/09/16 09:54:57;;;;;;;12.80;8.48;;;20.80;99.90;;;;;;4973397;28;20181;-64
2023/09/16 09:57:23;;;;;;;12.40;8.90;;;20.90;99.90;;;;;;4971951;28;20178;-63
2023/09/16 09:59:49;;;;;;;11.18;8.43;;;20.90;99.90;;;;;;4957893;28;20193;-63
2023/09/16 10:02:15;;;;;;;10.48;6.95;;;21.00;99.90;;;;;;4975259;28;20551;-64
2023/09/16 10:04:41;;;;;;;15.35;8.00;;;21.10;99.90;;;;;;4974610;28;20678;-63
2023/09/16 10:07:08;;;;;;;14.88;8.90;;;21.10;99.90;;;;;;4936544;28;20269;-64
2023/09/16 10:09:34;;;;;;;13.65;9.05;;;21.20;99.90;;;;;;4973779;28;20228;-63
2023/09/16 10:12:01;;;;;;;9.70;7.10;;;21.20;99.90;;;;;;4957892;28;20598;-64
2023/09/16 10:14:27;;;;;;;9.32;7.00;;;21.20;99.90;;;;;;4957569;28;20182;-64
2023/09/16 10:16:53;;;;;;;10.00;6.97;;;21.30;99.90;;;;;;4969656;28;20630;-65
2023/09/16 10:19:22;;;;;;;15.80;9.18;;;21.40;99.90;;;;;;4973912;28;20312;-64
2023/09/16 10:21:48;;;;;;;14.45;7.72;;;21.40;99.90;;;;;;4975404;28;20186;-65
2023/09/16 10:24:16;;;;;;;13.13;7.57;;;21.50;99.90;;;;;;4974531;28;20192;-66
2023/09/16 10:26:42;;;;;;;9.70;6.53;;;21.50;99.90;;;;;;4957949;28;20217;-67
2023/09/16 10:29:12;;;;;;;13.93;7.30;;;21.60;99.90;;;;;;4971046;28;20234;-67
2023/09/16 10:31:42;;;;;;;19.88;9.57;;;21.70;99.90;;;;;;4951773;28;20205;-65
2023/09/16 10:34:09;;;;;;;10.88;7.47;;;21.70;99.90;;;;;;4972597;28;20178;-65
2023/09/16 10:36:36;;;;;;;11.18;7.53;;;21.80;99.90;;;;;;4941919;28;20253;-63
2023/09/16 10:39:03;;;;;;;10.50;7.90;;;21.80;99.90;;;;;;4972263;28;20220;-67
2023/09/16 10:41:30;;;;;;;14.57;7.03;;;21.90;99.90;;;;;;4963888;28;20268;-64
2023/09/16 10:43:58;;;;;;;12.63;8.35;;;21.90;99.90;;;;;;4974108;28;20677;-63
2023/09/16 10:46:25;;;;;;;12.60;7.90;;;22.00;99.90;;;;;;4972024;28;20190;-64
2023/09/16 10:48:51;;;;;;;15.43;8.45;;;22.00;99.90;;;;;;4952389;28;20304;-63
2023/09/16 10:51:25;;;;;;;14.45;7.45;;;22.10;99.90;;;;;;4968910;28;20186;-66
2023/09/16 10:54:00;;;;;;;13.60;8.63;;;22.20;99.90;;;;;;4952775;28;20241;-65
2023/09/16 10:56:33;;;;;;;11.57;7.80;;;22.20;99.90;;;;;;4974181;28;20193;-64
2023/09/16 10:59:10;;;;;;;13.18;7.35;;;22.30;99.90;;;;;;4973561;28;20214;-64
2023/09/16 11:01:39;;;;;;;12.60;7.97;;;22.30;99.90;;;;;;4969358;28;20273;-66
2023/09/16 11:04:16;;;;;;;11.57;7.75;;;22.40;99.90;;;;;;4973526;28;20299;-65
2023/09/16 11:06:43;;;;;;;10.13;7.30;;;22.40;99.90;;;;;;4974093;28;20241;-66
2023/09/16 11:09:09;;;;;;;12.38;7.80;;;22.50;99.90;;;;;;4974172;28;20214;-65
2023/09/16 11:11:36;;;;;;;11.80;7.50;;;22.50;99.90;;;;;;4968295;28;20273;-65
2023/09/16 11:14:04;;;;;;;10.60;7.40;;;22.60;99.90;;;;;;4955936;28;20189;-64
2023/09/16 11:16:45;;;;;;;11.00;7.35;;;22.60;99.90;;;;;;4972640;28;20179;-64
2023/09/16 11:19:24;;;;;;;14.23;7.60;;;22.60;99.90;;;;;;4969471;28;20218;-65
2023/09/16 11:21:52;;;;;;;9.43;7.28;;;22.70;99.90;;;;;;4951371;28;20258;-65
2023/09/16 11:24:18;;;;;;;11.70;6.95;;;22.70;99.90;;;;;;4971763;28;20190;-64
2023/09/16 11:26:49;;;;;;;8.02;6.30;;;22.70;99.90;;;;;;4973508;28;20197;-63
2023/09/16 11:29:21;;;;;;;8.02;6.00;;;22.70;99.90;;;;;;4955771;28;20224;-65
2023/09/16 11:31:47;;;;;;;11.85;6.57;;;22.80;99.90;;;;;;4953743;28;20550;-66
2023/09/16 11:34:21;;;;;;;8.32;6.05;;;22.80;99.90;;;;;;4959742;28;20189;-66
2023/09/16 11:37:00;;;;;;;8.85;5.50;;;22.80;99.90;;;;;;4973391;28;20586;-67
2023/09/16 11:39:39;;;;;;;7.40;5.28;;;22.90;99.90;;;;;;4944762;28;20281;-63
2023/09/16 11:42:07;;;;;;;11.93;5.47;;;22.90;99.90;;;;;;4970662;28;20754;-66
2023/09/16 11:44:38;;;;;;;5.85;4.32;;;23.00;99.90;;;;;;4951074;28;20213;-64
2023/09/16 11:47:04;;;;;;;9.30;5.45;;;23.00;99.90;;;;;;4972190;28;20170;-66
2023/09/16 11:49:34;;;;;;;7.65;5.15;;;23.10;99.90;;;;;;4972757;28;20674;-65
2023/09/16 11:52:01;;;;;;;8.90;5.50;;;23.20;99.90;;;;;;4955473;28;20194;-65
2023/09/16 11:54:27;;;;;;;8.55;6.63;;;23.20;99.90;;;;;;4968852;28;20986;-65
2023/09/16 11:56:54;;;;;;;8.70;6.25;;;23.20;99.90;;;;;;4951197;28;20198;-65
2023/09/16 11:59:20;;;;;;;9.30;6.07;;;23.10;99.90;;;;;;4972061;28;20570;-66
2023/09/16 12:01:47;;;;;;;8.32;6.22;;;23.20;99.90;;;;;;4972757;28;20627;-66
2023/09/16 12:04:15;;;;;;;12.23;5.80;;;23.20;99.90;;;;;;4972228;28;20191;-67
2023/09/16 12:06:43;;;;;;;8.55;5.07;;;23.30;99.90;;;;;;4972874;28;20655;-65
2023/09/16 12:09:14;;;;;;;7.93;4.55;;;23.30;99.90;;;;;;4955816;28;20753;-65
2023/09/16 12:11:41;;;;;;;8.43;5.18;;;23.30;99.90;;;;;;4972365;28;20277;-65
2023/09/16 12:14:07;;;;;;;13.57;7.45;;;23.40;99.90;;;;;;4954853;28;20193;-66
2023/09/16 12:16:36;;;;;;;7.90;5.75;;;23.40;99.60;;;;;;4968158;28;20273;-66
2023/09/16 12:19:03;;;;;;;7.32;5.35;;;23.40;99.30;;;;;;4972689;28;20197;-67
2023/09/16 12:21:29;;;;;;;8.68;4.82;;;23.50;99.30;;;;;;4971497;28;20202;-67
2023/09/16 12:23:55;;;;;;;8.77;5.50;;;23.70;99.10;;;;;;4970651;28;20182;-72
2023/09/16 12:26:21;;;;;;;7.22;5.18;;;23.80;98.40;;;;;;4964235;28;20190;-66
2023/09/16 12:28:47;;;;;;;10.23;5.45;;;23.80;97.80;;;;;;4970632;28;20186;-67
2023/09/16 12:31:19;;;;;;;7.82;4.47;;;23.90;97.20;;;;;;4952407;28;20200;-66